createdAt,value
2022-08-20T00:02:06.108Z,19.79
2022-08-20T00:05:11.227Z,20.01
2022-08-20T00:08:16.215Z,20.17
2022-08-20T00:11:25.422Z,20.61
2022-08-20T00:14:29.956Z,20.94
2022-08-20T00:17:38.477Z,20.98
2022-08-20T00:20:46.750Z,21.27
2022-08-20T00:23:53.230Z,21.57
2022-08-20T00:26:58.035Z,21.29
2022-08-20T00:30:02.875Z,21.13
2022-08-20T00:33:11.264Z,21.45
2022-08-20T00:36:18.355Z,21.76
2022-08-20T00:39:23.042Z,21.88
2022-08-20T00:42:27.899Z,21.96
2022-08-20T00:45:34.387Z,22.12
2022-08-20T00:48:41.813Z,22.39
2022-08-20T00:51:58.497Z,23.22
2022-08-20T00:55:05.415Z,23.55
2022-08-20T00:58:10.853Z,24.28
2022-08-20T01:01:16.730Z,25.25
2022-08-20T01:04:21.775Z,25.18
2022-08-20T01:07:35.835Z,26.29
2022-08-20T01:10:42.850Z,26.48
2022-08-20T01:13:47.973Z,25.43
2022-08-20T01:16:55.582Z,25.31
2022-08-20T01:20:08.433Z,24.29
2022-08-20T01:23:28.850Z,23.57
2022-08-20T01:26:40.574Z,23.84
2022-08-20T01:29:45.884Z,24.77
2022-08-20T01:32:50.411Z,24.96
2022-08-20T01:35:56.169Z,23.50
2022-08-20T01:39:01.815Z,23.63
2022-08-20T01:42:20.568Z,25.63
2022-08-20T01:45:27.665Z,26.62
2022-08-20T01:48:32.972Z,27.77
2022-08-20T01:51:37.280Z,28.10
2022-08-20T01:54:42.932Z,28.16
2022-08-20T01:57:49.342Z,28.18
2022-08-20T02:00:53.917Z,28.55
2022-08-20T02:03:58.972Z,28.20
2022-08-20T02:07:05.142Z,27.53
2022-08-20T02:10:13.740Z,27.84
2022-08-20T02:13:18.729Z,26.79
2022-08-20T02:16:55.160Z,26.36
2022-08-20T02:20:08.612Z,26.69
2022-08-20T02:23:13.969Z,26.69
2022-08-20T02:26:20.084Z,26.49
2022-08-20T02:29:24.969Z,26.73
2022-08-20T02:32:34.133Z,26.78
2022-08-20T02:35:40.910Z,26.53
2022-08-20T02:38:46.026Z,25.91
2022-08-20T02:41:51.167Z,25.42
2022-08-20T02:44:55.864Z,24.17
2022-08-20T02:48:00.605Z,24.03
2022-08-20T02:51:07.646Z,24.82
2022-08-20T02:54:12.551Z,25.83
2022-08-20T02:57:21.264Z,24.06
2022-08-20T03:00:26.314Z,24.37
2022-08-20T03:03:30.535Z,24.47
2022-08-20T03:06:35.335Z,25.00
2022-08-20T03:09:40.783Z,24.28
2022-08-20T03:12:47.580Z,24.92
2022-08-20T03:15:59.324Z,25.49
2022-08-20T03:19:03.769Z,25.58
2022-08-20T03:22:08.180Z,25.10
2022-08-20T03:25:13.266Z,25.49
2022-08-20T03:28:18.779Z,25.12
2022-08-20T03:31:23.477Z,25.20
2022-08-20T03:34:28.220Z,25.37
2022-08-20T03:37:34.767Z,25.76
2022-08-20T03:40:40.805Z,25.50
2022-08-20T03:43:45.626Z,25.37
2022-08-20T03:46:50.268Z,25.02
2022-08-20T03:50:02.580Z,25.15
2022-08-20T03:53:07.366Z,25.24
2022-08-20T03:56:18.336Z,25.48
2022-08-20T03:59:22.911Z,25.35
2022-08-20T04:02:29.189Z,25.29
2022-08-20T04:05:35.241Z,25.21
2022-08-20T04:08:42.698Z,25.41
2022-08-20T04:11:47.518Z,25.46
2022-08-20T04:14:53.348Z,25.18
2022-08-20T04:17:58.399Z,24.94
2022-08-20T04:21:03.127Z,24.98
2022-08-20T04:24:07.695Z,24.60
2022-08-20T04:27:29.668Z,24.71
2022-08-20T04:30:34.217Z,24.99
2022-08-20T04:33:38.766Z,25.52
2022-08-20T04:36:43.317Z,25.65
2022-08-20T04:40:07.762Z,25.80
2022-08-20T04:43:14.472Z,25.98
2022-08-20T04:46:19.202Z,25.64
2022-08-20T04:49:27.062Z,25.77
2022-08-20T04:52:33.771Z,25.56
2022-08-20T04:55:42.664Z,25.53
2022-08-20T04:58:49.659Z,25.24
2022-08-20T05:01:54.215Z,25.37
2022-08-20T05:04:58.867Z,25.08
2022-08-20T05:08:04.317Z,25.05
2022-08-20T05:11:33.208Z,25.18
2022-08-20T05:14:37.388Z,25.28
2022-08-20T05:17:43.814Z,25.17
2022-08-20T05:20:49.801Z,24.75
2022-08-20T05:23:54.349Z,24.43
2022-08-20T05:27:00.715Z,24.30
2022-08-20T05:30:13.561Z,24.37
2022-08-20T05:33:23.867Z,24.07
2022-08-20T05:36:28.382Z,23.90
2022-08-20T05:39:37.223Z,23.92
2022-08-20T05:42:44.247Z,23.61
2022-08-20T05:45:56.524Z,23.46
2022-08-20T05:49:04.893Z,23.37
2022-08-20T05:52:09.623Z,23.23
2022-08-20T05:55:15.652Z,23.04
2022-08-20T05:58:30.125Z,22.92
2022-08-20T06:01:36.931Z,22.62
2022-08-20T06:04:41.951Z,22.68
2022-08-20T06:07:46.779Z,22.36
2022-08-20T06:10:51.922Z,21.89
2022-08-20T06:13:56.851Z,21.55
2022-08-20T06:17:15.385Z,21.32
2022-08-20T06:20:20.150Z,21.20
2022-08-20T06:23:26.222Z,21.20
2022-08-20T06:26:31.424Z,21.23
2022-08-20T06:29:37.543Z,21.52
2022-08-20T06:32:42.379Z,21.98
2022-08-20T06:35:47.252Z,22.06
2022-08-20T06:38:51.896Z,22.04
2022-08-20T06:41:59.530Z,21.76
2022-08-20T06:45:07.684Z,21.98
2022-08-20T06:48:15.173Z,22.21
2022-08-20T06:51:21.431Z,21.66
2022-08-20T06:54:28.684Z,21.74
2022-08-20T06:57:34.148Z,21.40
2022-08-20T07:00:41.507Z,21.13
2022-08-20T07:03:54.608Z,21.40
2022-08-20T07:07:01.378Z,21.37
2022-08-20T07:10:12.053Z,21.37
2022-08-20T07:13:17.321Z,21.32
2022-08-20T07:16:21.807Z,20.99
2022-08-20T07:19:26.856Z,20.82
2022-08-20T07:22:31.348Z,20.46
2022-08-20T07:25:36.094Z,20.84
2022-08-20T07:28:40.781Z,20.87
2022-08-20T07:32:04.399Z,20.68
2022-08-20T07:35:13.199Z,21.03
2022-08-20T07:38:25.699Z,21.23
2022-08-20T07:41:30.166Z,21.30
2022-08-20T07:44:34.745Z,21.23
2022-08-20T07:47:41.355Z,21.44
2022-08-20T07:50:46.311Z,21.52
2022-08-20T07:53:54.898Z,21.32
2022-08-20T07:57:04.270Z,21.54
2022-08-20T08:00:11.439Z,21.56
2022-08-20T08:03:15.999Z,21.31
2022-08-20T08:06:29.990Z,21.04
2022-08-20T08:09:36.675Z,20.63
2022-08-20T08:12:49.488Z,20.49
2022-08-20T08:16:02.663Z,20.54
2022-08-20T08:19:10.625Z,20.73
2022-08-20T08:22:19.092Z,20.82
2022-08-20T08:25:23.770Z,20.76
2022-08-20T08:28:31.893Z,20.85
2022-08-20T08:31:36.615Z,20.83
2022-08-20T08:34:41.263Z,20.83
2022-08-20T08:37:45.813Z,21.04
2022-08-20T08:40:57.594Z,20.90
2022-08-20T08:44:13.840Z,20.93
2022-08-20T08:47:30.306Z,20.80
2022-08-20T08:50:53.464Z,20.79
2022-08-20T08:54:04.590Z,20.39
2022-08-20T08:57:12.038Z,20.65
2022-08-20T09:00:20.144Z,20.58
2022-08-20T09:03:38.289Z,20.58
2022-08-20T09:06:44.402Z,20.59
2022-08-20T09:09:49.284Z,20.67
2022-08-20T09:12:54.770Z,20.49
2022-08-20T09:15:59.676Z,20.52
2022-08-20T09:19:05.355Z,20.47
2022-08-20T09:22:16.517Z,20.31
2022-08-20T09:25:21.273Z,20.05
2022-08-20T09:28:26.037Z,20.07
2022-08-20T09:31:38.263Z,20.02
2022-08-20T09:34:46.244Z,19.70
2022-08-20T09:37:52.919Z,19.66
2022-08-20T09:41:01.813Z,19.65
2022-08-20T09:44:06.632Z,19.48
2022-08-20T09:47:16.183Z,19.43
2022-08-20T09:50:20.985Z,19.23
2022-08-20T09:53:29.916Z,19.30
2022-08-20T09:56:36.966Z,19.19
2022-08-20T09:59:41.900Z,19.01
2022-08-20T10:02:47.183Z,18.96
2022-08-20T10:05:51.911Z,18.83
2022-08-20T10:08:56.483Z,18.85
2022-08-20T10:12:01.093Z,18.65
2022-08-20T10:15:06.320Z,18.56
2022-08-20T10:18:12.201Z,18.34
2022-08-20T10:21:16.856Z,18.17
2022-08-20T10:24:22.720Z,18.33
2022-08-20T10:27:27.230Z,18.29
2022-08-20T10:30:31.951Z,18.03
2022-08-20T10:33:37.945Z,18.25
2022-08-20T10:36:44.357Z,18.01
2022-08-20T10:39:49.219Z,17.73
2022-08-20T10:42:53.802Z,17.71
2022-08-20T10:45:58.567Z,17.73
2022-08-20T10:49:03.503Z,17.96
2022-08-20T10:52:08.149Z,17.77
2022-08-20T10:55:13.553Z,18.07
2022-08-20T10:58:18.188Z,17.86
2022-08-20T11:01:31.469Z,17.28
2022-08-20T11:04:38.735Z,17.15
2022-08-20T11:07:55.512Z,16.82
2022-08-20T11:11:01.075Z,16.79
2022-08-20T11:14:05.816Z,16.86
2022-08-20T11:17:11.220Z,16.77
2022-08-20T11:20:19.074Z,16.68
2022-08-20T11:23:24.758Z,16.64
2022-08-20T11:26:29.656Z,16.45
2022-08-20T11:29:34.494Z,16.46
2022-08-20T11:32:39.320Z,16.07
2022-08-20T11:35:48.909Z,15.62
2022-08-20T11:38:54.839Z,15.56
2022-08-20T11:41:59.458Z,15.48
2022-08-20T11:45:03.919Z,15.11
2022-08-20T11:48:08.550Z,15.12
2022-08-20T11:51:13.523Z,15.05
2022-08-20T11:54:18.092Z,15.00
2022-08-20T11:57:31.967Z,15.31
2022-08-20T12:00:39.211Z,15.36
2022-08-20T12:03:43.801Z,15.19
2022-08-20T12:06:49.043Z,15.00
2022-08-20T12:09:54.508Z,15.33
2022-08-20T12:12:59.847Z,15.33
2022-08-20T12:16:07.047Z,15.33
2022-08-20T12:19:11.767Z,14.97
2022-08-20T12:22:23.767Z,15.16
2022-08-20T12:25:30.296Z,14.85
2022-08-20T12:28:35.354Z,15.33
2022-08-20T12:31:39.749Z,15.24
2022-08-20T12:34:45.552Z,15.32
2022-08-20T12:37:50.184Z,15.31
2022-08-20T12:40:54.922Z,15.15
2022-08-20T12:43:59.457Z,15.15
2022-08-20T12:47:26.271Z,15.26
2022-08-20T12:50:31.988Z,15.19
2022-08-20T12:53:40.753Z,15.06
2022-08-20T12:56:45.363Z,15.10
2022-08-20T12:59:50.036Z,15.04
2022-08-20T13:03:01.172Z,14.94
2022-08-20T13:06:06.666Z,14.74
2022-08-20T13:09:11.793Z,14.81
2022-08-20T13:12:16.751Z,14.88
2022-08-20T13:15:22.392Z,14.76
2022-08-20T13:18:26.835Z,14.81
2022-08-20T13:21:31.478Z,14.81
2022-08-20T13:24:36.399Z,14.88
2022-08-20T13:27:45.057Z,14.83
2022-08-20T13:30:49.778Z,14.59
2022-08-20T13:33:54.772Z,13.82
2022-08-20T13:36:59.552Z,14.67
2022-08-20T13:40:05.627Z,14.43
2022-08-20T13:43:11.915Z,14.19
2022-08-20T13:46:16.711Z,13.99
2022-08-20T13:49:21.371Z,13.86
2022-08-20T13:52:27.531Z,14.03
2022-08-20T13:55:32.444Z,14.10
2022-08-20T13:58:38.299Z,14.24
2022-08-20T14:01:42.917Z,14.22
2022-08-20T14:04:49.443Z,14.16
2022-08-20T14:07:54.274Z,14.21
2022-08-20T14:10:59.199Z,14.35
2022-08-20T14:14:04.034Z,14.26
2022-08-20T14:17:25.496Z,14.18
2022-08-20T14:20:32.742Z,14.33
2022-08-20T14:23:37.477Z,14.39
2022-08-20T14:26:42.121Z,14.28
2022-08-20T14:29:48.295Z,14.29
2022-08-20T14:32:53.736Z,14.25
2022-08-20T14:35:58.025Z,14.18
2022-08-20T14:39:02.559Z,14.31
2022-08-20T14:42:07.428Z,14.39
2022-08-20T14:45:14.886Z,14.34
2022-08-20T14:48:19.800Z,14.34
2022-08-20T14:51:24.428Z,14.51
2022-08-20T14:54:29.370Z,14.36
2022-08-20T14:57:34.604Z,14.04
2022-08-20T15:00:39.777Z,13.98
2022-08-20T15:03:44.593Z,14.14
2022-08-20T15:06:49.661Z,14.10
2022-08-20T15:09:55.221Z,14.33
2022-08-20T15:13:00.407Z,14.22
2022-08-20T15:16:05.327Z,14.39
2022-08-20T15:19:10.001Z,14.55
2022-08-20T15:22:14.720Z,14.31
2022-08-20T15:25:21.896Z,14.57
2022-08-20T15:28:26.492Z,14.56
2022-08-20T15:31:31.073Z,14.44
2022-08-20T15:34:40.386Z,14.35
2022-08-20T15:37:49.732Z,14.26
2022-08-20T15:40:54.412Z,14.33
2022-08-20T15:43:59.224Z,14.26
2022-08-20T15:47:25.826Z,14.22
2022-08-20T15:50:48.994Z,14.02
2022-08-20T15:53:59.641Z,14.35
2022-08-20T15:57:23.642Z,14.48
2022-08-20T16:00:40.411Z,14.68
2022-08-20T16:04:08.775Z,14.53
2022-08-20T16:07:23.982Z,14.66
2022-08-20T16:11:01.483Z,14.54
2022-08-20T16:14:20.940Z,14.45
2022-08-20T16:17:43.610Z,14.62
2022-08-20T16:20:52.920Z,14.71
2022-08-20T16:23:58.756Z,14.76
2022-08-20T16:27:05.704Z,14.70
2022-08-20T16:30:38.562Z,14.67
2022-08-20T16:34:32.249Z,14.78
2022-08-20T16:37:49.202Z,14.60
2022-08-20T16:40:58.289Z,14.82
2022-08-20T16:44:05.298Z,14.78
2022-08-20T16:47:19.402Z,14.80
2022-08-20T16:50:30.198Z,14.85
2022-08-20T16:53:35.025Z,14.82
2022-08-20T16:56:43.039Z,14.93
2022-08-20T17:00:13.989Z,15.00
2022-08-20T17:03:40.301Z,15.08
2022-08-20T17:06:49.032Z,15.08
2022-08-20T17:10:09.608Z,15.06
2022-08-20T17:13:17.612Z,15.09
2022-08-20T17:16:23.901Z,15.09
2022-08-20T17:19:31.361Z,15.24
2022-08-20T17:22:43.463Z,14.79
2022-08-20T17:25:59.152Z,15.07
2022-08-20T17:29:12.125Z,14.98
2022-08-20T17:32:36.908Z,14.90
2022-08-20T17:35:49.701Z,15.16
2022-08-20T17:38:58.914Z,15.06
2022-08-20T17:42:11.190Z,15.14
2022-08-20T17:45:28.920Z,15.23
2022-08-20T17:48:46.997Z,15.07
2022-08-20T17:51:56.075Z,15.20
2022-08-20T17:55:03.350Z,15.17
2022-08-20T17:58:15.674Z,15.17
2022-08-20T18:01:22.446Z,15.24
2022-08-20T18:04:27.635Z,15.25
2022-08-20T18:07:47.444Z,15.19
2022-08-20T18:11:00.938Z,15.26
2022-08-20T18:14:27.488Z,15.27
2022-08-20T18:17:52.975Z,15.32
2022-08-20T18:21:12.663Z,15.30
2022-08-20T18:24:23.910Z,15.24
2022-08-20T18:27:44.050Z,15.16
2022-08-20T18:30:54.686Z,15.14
2022-08-20T18:34:19.517Z,15.40
2022-08-20T18:37:28.629Z,15.30
2022-08-20T18:40:34.957Z,15.19
2022-08-20T18:43:40.791Z,15.41
2022-08-20T18:46:59.230Z,15.41
2022-08-20T18:50:16.380Z,15.30
2022-08-20T18:53:34.446Z,15.23
2022-08-20T18:56:44.063Z,15.31
2022-08-20T19:00:19.329Z,15.23
2022-08-20T19:03:48.622Z,15.31
2022-08-20T19:06:58.897Z,15.26
2022-08-20T19:10:28.411Z,15.15
2022-08-20T19:13:53.125Z,14.99
2022-08-20T19:17:32.782Z,15.03
2022-08-20T19:20:42.351Z,15.06
2022-08-20T19:23:54.824Z,15.05
2022-08-20T19:27:06.400Z,14.97
2022-08-20T19:30:12.026Z,15.05
2022-08-20T19:33:26.656Z,15.15
2022-08-20T19:36:35.640Z,15.14
2022-08-20T19:39:40.615Z,15.13
2022-08-20T19:42:45.545Z,15.21
2022-08-20T19:45:53.324Z,15.00
2022-08-20T19:49:19.152Z,15.03
2022-08-20T19:52:39.671Z,14.90
2022-08-20T19:55:44.647Z,14.99
2022-08-20T19:59:11.590Z,14.86
2022-08-20T20:02:20.670Z,14.73
2022-08-20T20:05:26.890Z,14.79
2022-08-20T20:08:51.323Z,14.92
2022-08-20T20:11:58.057Z,14.95
2022-08-20T20:15:03.297Z,14.96
2022-08-20T20:18:09.107Z,15.07
2022-08-20T20:21:17.235Z,15.07
2022-08-20T20:24:26.114Z,15.10
2022-08-20T20:27:32.864Z,15.16
2022-08-20T20:30:40.126Z,15.03
2022-08-20T20:33:45.057Z,15.05
2022-08-20T20:36:49.999Z,14.94
2022-08-20T20:40:05.500Z,14.94
2022-08-20T20:43:11.875Z,14.85
2022-08-20T20:46:26.478Z,14.94
2022-08-20T20:49:49.404Z,15.07
2022-08-20T20:52:58.319Z,15.06
2022-08-20T20:56:03.522Z,15.10
2022-08-20T20:59:10.664Z,15.26
2022-08-20T21:02:15.991Z,15.18
2022-08-20T21:05:21.200Z,15.16
2022-08-20T21:08:25.861Z,15.26
2022-08-20T21:11:30.754Z,15.51
2022-08-20T21:14:36.345Z,15.30
2022-08-20T21:17:41.222Z,15.47
2022-08-20T21:20:45.771Z,15.63
2022-08-20T21:23:50.584Z,15.60
2022-08-20T21:26:56.164Z,15.75
2022-08-20T21:30:00.524Z,15.71
2022-08-20T21:33:06.422Z,15.96
2022-08-20T21:36:11.111Z,16.06
2022-08-20T21:39:16.224Z,16.09
2022-08-20T21:42:29.447Z,16.34
2022-08-20T21:45:35.558Z,16.39
2022-08-20T21:48:41.748Z,16.00
2022-08-20T21:51:49.640Z,16.63
2022-08-20T21:54:54.252Z,16.13
2022-08-20T21:57:59.552Z,16.01
2022-08-20T22:01:06.666Z,16.51
2022-08-20T22:04:11.803Z,16.88
2022-08-20T22:07:17.631Z,16.64
2022-08-20T22:10:22.835Z,16.70
2022-08-20T22:13:33.248Z,17.59
2022-08-20T22:16:42.324Z,18.03
2022-08-20T22:19:50.041Z,18.49
2022-08-20T22:22:54.790Z,19.73
2022-08-20T22:25:59.467Z,20.90
2022-08-20T22:29:06.179Z,20.93
2022-08-20T22:32:11.035Z,19.88
2022-08-20T22:35:16.099Z,19.88
2022-08-20T22:38:21.375Z,18.94
2022-08-20T22:41:25.593Z,19.44
2022-08-20T22:44:30.454Z,20.23
2022-08-20T22:47:36.149Z,20.74
2022-08-20T22:50:41.262Z,20.20
2022-08-20T22:53:46.464Z,21.27
2022-08-20T22:56:51.976Z,20.94
2022-08-20T22:59:57.537Z,20.21
2022-08-20T23:03:04.518Z,19.56
2022-08-20T23:06:10.477Z,19.20
2022-08-20T23:09:15.338Z,18.86
2022-08-20T23:12:25.633Z,19.25
2022-08-20T23:15:32.554Z,19.38
2022-08-20T23:18:37.256Z,19.35
2022-08-20T23:21:41.895Z,18.87
2022-08-20T23:24:47.239Z,18.44
2022-08-20T23:27:55.282Z,18.55
2022-08-20T23:31:00.292Z,18.93
2022-08-20T23:34:04.952Z,18.66
2022-08-20T23:37:10.141Z,18.89
2022-08-20T23:40:15.540Z,19.00
2022-08-20T23:43:20.061Z,18.90
2022-08-20T23:46:28.903Z,18.61
2022-08-20T23:49:34.073Z,18.63
2022-08-20T23:52:38.123Z,18.75
2022-08-20T23:55:42.646Z,18.88
2022-08-20T23:58:47.277Z,19.25
